Time;durP1;ratioP1;P1;durP2;ratioP2;P2;SDS_P1;SDS_P2;PMS_P1;PMS_P2;Temp;Humidity;BMP_temperature;BMP_pressure;BME280_temperature;BME280_humidity;BME280_pressure;Samples;Min_cycle;Max_cycle;Signal;HPM_P1;HPM_P2
2023/02/19 00:01:51;;;;;;;6.50;5.50;;;6.00;99.90;;;;;;5107712;28;20717;-60
2023/02/19 00:04:22;;;;;;;7.73;6.57;;;6.30;99.90;;;;;;5105337;28;20605;-60
2023/02/19 00:06:52;;;;;;;6.77;5.57;;;6.40;99.90;;;;;;5115074;28;20685;-60
2023/02/19 00:09:20;;;;;;;9.60;6.20;;;6.10;99.90;;;;;;5126835;27;20229;-60
2023/02/19 00:11:48;;;;;;;7.57;5.73;;;6.10;99.90;;;;;;5122107;27;20311;-60
2023/02/19 00:14:18;;;;;;;8.87;6.57;;;6.20;99.90;;;;;;5126268;27;20222;-60
2023/02/19 00:16:46;;;;;;;9.20;6.00;;;6.30;99.90;;;;;;5106323;28;20685;-60
2023/02/19 00:19:16;;;;;;;8.90;6.70;;;6.30;99.90;;;;;;5114992;28;20288;-60
2023/02/19 00:21:44;;;;;;;7.37;6.13;;;6.40;99.90;;;;;;5114695;28;20217;-60
2023/02/19 00:24:14;;;;;;;9.10;6.07;;;6.40;99.90;;;;;;5107016;28;20229;-60
2023/02/19 00:26:44;;;;;;;8.03;6.23;;;6.40;99.90;;;;;;5098164;28;20233;-60
2023/02/19 00:29:14;;;;;;;9.03;7.10;;;6.20;99.90;;;;;;5132463;27;20225;-60
2023/02/19 00:31:43;;;;;;;8.37;7.37;;;6.40;99.90;;;;;;5134588;27;20225;-60
2023/02/19 00:34:12;;;;;;;8.27;7.37;;;6.30;99.90;;;;;;5116981;27;20320;-60
2023/02/19 00:36:41;;;;;;;9.57;7.10;;;6.10;99.90;;;;;;5124139;27;20228;-60
2023/02/19 00:39:14;;;;;;;7.90;7.10;;;5.90;99.90;;;;;;5114553;27;20235;-60
2023/02/19 00:41:44;;;;;;;8.70;7.10;;;5.90;99.90;;;;;;5114535;28;20226;-60
2023/02/19 00:44:13;;;;;;;8.63;7.20;;;6.00;99.90;;;;;;5114146;28;20245;-60
2023/02/19 00:46:42;;;;;;;8.97;7.00;;;6.00;99.90;;;;;;5105596;28;20221;-60
2023/02/19 00:49:16;;;;;;;9.03;6.47;;;5.90;99.90;;;;;;5114337;28;20597;-60
2023/02/19 00:51:44;;;;;;;5.97;5.13;;;5.80;99.90;;;;;;5095745;28;20320;-60
2023/02/19 00:54:14;;;;;;;11.17;6.07;;;5.90;99.90;;;;;;5106161;28;20224;-60
2023/02/19 00:56:42;;;;;;;9.30;7.27;;;6.10;99.90;;;;;;5095707;28;20229;-60
2023/02/19 00:59:10;;;;;;;8.63;6.83;;;6.10;99.90;;;;;;5113997;28;20229;-60
2023/02/19 01:01:38;;;;;;;8.60;7.23;;;6.10;99.90;;;;;;5113504;28;20241;-60
2023/02/19 01:04:07;;;;;;;8.27;6.73;;;5.90;99.90;;;;;;5095780;28;20261;-60
2023/02/19 01:06:35;;;;;;;7.90;6.67;;;5.70;99.90;;;;;;5113662;28;20225;-60
2023/02/19 01:09:04;;;;;;;7.10;6.23;;;5.60;99.90;;;;;;5095903;28;20673;-60
2023/02/19 01:11:34;;;;;;;9.40;6.53;;;5.50;99.90;;;;;;5113695;28;20218;-60
2023/02/19 01:14:03;;;;;;;9.57;6.60;;;5.40;99.90;;;;;;5095503;28;20232;-61
2023/02/19 01:16:32;;;;;;;9.70;6.80;;;5.40;99.90;;;;;;5106933;28;20228;-60
2023/02/19 01:19:00;;;;;;;7.73;6.50;;;5.40;99.90;;;;;;5092017;28;20267;-61
2023/02/19 01:21:29;;;;;;;6.90;5.97;;;5.30;99.90;;;;;;5093190;28;20225;-60
2023/02/19 01:23:59;;;;;;;7.27;6.23;;;5.30;99.90;;;;;;5109749;28;20225;-60
2023/02/19 01:26:30;;;;;;;7.17;6.33;;;5.30;99.90;;;;;;5107654;28;20229;-60
2023/02/19 01:29:00;;;;;;;7.93;6.60;;;5.20;99.90;;;;;;5094606;28;20229;-60
2023/02/19 01:31:29;;;;;;;7.77;6.30;;;5.20;99.90;;;;;;5113070;28;20229;-60
2023/02/19 01:34:01;;;;;;;7.10;6.40;;;5.20;99.90;;;;;;5113762;28;20233;-60
2023/02/19 01:36:30;;;;;;;7.93;6.50;;;5.20;99.90;;;;;;5113191;28;20218;-60
2023/02/19 01:39:02;;;;;;;7.53;6.17;;;5.20;99.90;;;;;;5116047;27;20703;-60
2023/02/19 01:41:32;;;;;;;6.90;6.20;;;5.10;99.90;;;;;;5110955;27;20257;-60
2023/02/19 01:44:06;;;;;;;8.50;6.43;;;5.10;99.90;;;;;;5103522;28;20238;-60
2023/02/19 01:46:36;;;;;;;7.77;6.47;;;5.10;99.90;;;;;;5105736;28;20232;-60
2023/02/19 01:49:07;;;;;;;8.53;6.37;;;5.10;99.90;;;;;;5093194;28;20261;-60
2023/02/19 01:51:39;;;;;;;8.80;6.90;;;5.10;99.90;;;;;;5093520;28;20310;-60
2023/02/19 01:54:09;;;;;;;9.00;6.70;;;5.10;99.90;;;;;;5118260;28;20216;-60
2023/02/19 01:56:41;;;;;;;8.27;6.63;;;5.10;99.90;;;;;;5097269;28;20670;-60
2023/02/19 01:59:12;;;;;;;7.10;6.20;;;5.00;99.90;;;;;;5091840;28;20324;-60
2023/02/19 02:01:41;;;;;;;7.83;6.03;;;5.10;99.90;;;;;;5090813;28;20317;-60
2023/02/19 02:04:11;;;;;;;7.50;6.17;;;5.00;99.90;;;;;;5092771;28;20681;-60
2023/02/19 02:06:44;;;;;;;8.03;5.73;;;5.00;99.90;;;;;;5103247;28;20230;-60
2023/02/19 02:11:58;;;;;;;7.03;5.40;;;5.00;99.90;;;;;;5112969;28;20225;-60
2023/02/19 02:14:31;;;;;;;7.87;5.80;;;5.00;99.90;;;;;;5113146;28;20221;-60
2023/02/19 02:17:08;;;;;;;8.20;6.13;;;5.00;99.90;;;;;;5104415;28;20225;-60
2023/02/19 02:20:02;;;;;;;7.30;5.70;;;4.90;99.90;;;;;;5112858;28;20595;-60
2023/02/19 02:22:34;;;;;;;9.20;5.70;;;4.90;99.90;;;;;;5112965;28;20587;-60
2023/02/19 02:25:25;;;;;;;7.77;5.63;;;4.90;99.90;;;;;;5092722;28;20232;-60
2023/02/19 02:28:01;;;;;;;7.33;5.20;;;4.90;99.90;;;;;;5091193;28;20325;-60
2023/02/19 02:30:41;;;;;;;8.73;5.67;;;4.90;99.90;;;;;;5096780;28;21816;-60
2023/02/19 02:33:24;;;;;;;7.00;4.90;;;4.80;99.90;;;;;;5094572;28;20243;-60
2023/02/19 02:35:57;;;;;;;10.40;5.13;;;4.80;99.90;;;;;;5094504;28;20747;-60
2023/02/19 02:38:28;;;;;;;11.57;4.97;;;4.80;99.90;;;;;;5106936;28;20771;-60
2023/02/19 02:40:57;;;;;;;7.50;4.43;;;4.80;99.90;;;;;;5096183;28;20749;-60
2023/02/19 02:43:26;;;;;;;5.83;4.20;;;4.80;99.90;;;;;;5111093;27;20233;-60
2023/02/19 02:45:56;;;;;;;7.47;4.23;;;4.70;99.90;;;;;;5100108;28;20474;-60
2023/02/19 02:48:37;;;;;;;7.03;4.00;;;4.70;99.90;;;;;;5098221;28;20295;-60
2023/02/19 02:51:11;;;;;;;8.17;4.37;;;4.70;99.90;;;;;;5131112;27;20220;-60
2023/02/19 02:56:35;;;;;;;7.23;4.37;;;4.70;99.90;;;;;;5100737;28;20460;-60
2023/02/19 02:59:08;;;;;;;6.67;4.53;;;4.70;99.90;;;;;;5094853;28;20233;-60
2023/02/19 03:04:32;;;;;;;7.20;4.40;;;4.90;99.90;;;;;;5097788;28;20228;-60
2023/02/19 03:07:07;;;;;;;7.17;3.70;;;4.70;99.90;;;;;;5097920;28;20489;-60
2023/02/19 03:09:42;;;;;;;10.17;4.30;;;4.70;99.90;;;;;;5098023;28;20213;-59
2023/02/19 03:20:49;;;;;;;7.27;2.90;;;4.70;99.90;;;;;;5115892;28;20476;-60
2023/02/19 03:23:19;;;;;;;8.97;2.50;;;4.60;99.90;;;;;;5116148;28;20224;-60
2023/02/19 03:26:02;;;;;;;5.87;2.77;;;4.60;99.90;;;;;;5107228;28;20471;-60
2023/02/19 03:31:32;;;;;;;7.67;2.13;;;4.60;99.90;;;;;;5097126;28;20510;-60
2023/02/19 03:34:08;;;;;;;10.87;2.30;;;4.60;99.90;;;;;;5097599;28;20468;-60
2023/02/19 03:36:40;;;;;;;8.63;2.20;;;4.50;99.90;;;;;;5115421;28;20703;-60
2023/02/19 03:39:10;;;;;;;5.60;1.90;;;4.50;99.90;;;;;;5097079;28;20562;-60
2023/02/19 03:41:45;;;;;;;3.70;1.80;;;4.60;99.90;;;;;;5097196;28;20915;-60
2023/02/19 03:44:23;;;;;;;7.30;1.93;;;4.60;99.90;;;;;;5101754;28;20580;-60
2023/02/19 03:47:02;;;;;;;6.73;1.80;;;4.80;99.90;;;;;;5103502;28;20835;-60
2023/02/19 03:49:43;;;;;;;6.13;1.77;;;4.80;99.90;;;;;;5097157;28;20498;-59
2023/02/19 03:52:18;;;;;;;6.27;1.67;;;4.90;99.90;;;;;;5118083;27;20806;-59
2023/02/19 03:54:52;;;;;;;2.53;1.20;;;4.80;99.90;;;;;;5099785;28;20532;-60
2023/02/19 03:57:26;;;;;;;4.93;1.43;;;4.80;99.90;;;;;;5097300;28;20231;-60
2023/02/19 03:59:59;;;;;;;4.73;1.40;;;5.00;99.90;;;;;;5097226;28;20241;-59
2023/02/19 04:02:33;;;;;;;4.97;1.33;;;5.00;99.90;;;;;;5096408;28;20233;-60
2023/02/19 04:05:09;;;;;;;5.87;1.67;;;5.00;99.90;;;;;;5097083;28;21003;-60
2023/02/19 04:07:44;;;;;;;4.60;1.70;;;5.00;99.90;;;;;;5097040;27;20350;-60
2023/02/19 04:10:16;;;;;;;5.00;1.37;;;4.80;99.90;;;;;;5076729;28;20239;-59
2023/02/19 04:12:50;;;;;;;8.07;2.07;;;4.90;99.90;;;;;;5076639;28;21477;-59
2023/02/19 04:15:22;;;;;;;5.97;1.93;;;4.80;99.90;;;;;;5117036;27;20467;-60
2023/02/19 04:17:55;;;;;;;7.00;1.50;;;4.90;99.90;;;;;;5114842;28;20452;-59
2023/02/19 04:20:28;;;;;;;5.30;1.57;;;4.80;99.90;;;;;;5114928;28;20236;-60
2023/02/19 04:22:57;;;;;;;8.70;2.20;;;4.70;99.90;;;;;;5122837;27;20239;-60
2023/02/19 04:25:27;;;;;;;4.10;1.80;;;4.60;99.90;;;;;;5120587;27;20562;-60
2023/02/19 04:27:55;;;;;;;6.57;2.40;;;4.50;99.90;;;;;;5115001;28;20451;-60
2023/02/19 04:30:23;;;;;;;4.93;1.70;;;4.50;99.90;;;;;;5114543;28;20226;-60
2023/02/19 04:32:52;;;;;;;3.83;1.53;;;4.50;99.90;;;;;;5114859;28;20955;-60
2023/02/19 04:35:20;;;;;;;5.43;1.70;;;4.50;99.90;;;;;;5114559;28;20478;-60
2023/02/19 04:37:49;;;;;;;5.03;1.57;;;4.50;99.90;;;;;;5115183;27;20981;-60
2023/02/19 04:40:17;;;;;;;7.33;2.03;;;4.50;99.90;;;;;;5114473;28;20518;-60
2023/02/19 04:42:45;;;;;;;5.57;2.20;;;4.60;99.90;;;;;;5114567;28;20233;-60
2023/02/19 04:45:13;;;;;;;5.80;2.20;;;4.60;99.90;;;;;;5110110;28;20701;-60
2023/02/19 04:47:41;;;;;;;5.43;1.90;;;4.50;99.90;;;;;;5110317;28;20456;-60
2023/02/19 04:50:10;;;;;;;5.07;2.17;;;4.50;99.90;;;;;;5120876;27;20459;-60
2023/02/19 04:52:38;;;;;;;6.60;2.57;;;4.40;99.90;;;;;;5127056;27;20473;-60
2023/02/19 04:55:08;;;;;;;6.80;2.93;;;4.40;99.90;;;;;;5105695;28;20454;-60
2023/02/19 04:57:36;;;;;;;8.73;3.50;;;4.40;99.90;;;;;;5114324;28;20214;-60
2023/02/19 05:00:06;;;;;;;6.10;2.87;;;4.30;99.90;;;;;;5114309;28;20244;-60
2023/02/19 05:02:34;;;;;;;10.23;3.67;;;4.20;99.90;;;;;;5113379;28;21016;-60
2023/02/19 05:05:02;;;;;;;6.77;3.70;;;4.60;99.90;;;;;;5112859;28;20499;-60
2023/02/19 05:07:30;;;;;;;9.57;6.03;;;4.90;99.90;;;;;;5113924;28;20462;-60
2023/02/19 05:09:58;;;;;;;10.60;6.33;;;5.00;99.90;;;;;;5114311;27;20989;-60
2023/02/19 05:12:29;;;;;;;9.87;6.07;;;5.00;99.90;;;;;;5113610;28;20239;-60
2023/02/19 05:14:57;;;;;;;13.50;6.80;;;5.00;99.90;;;;;;5111653;28;20479;-60
2023/02/19 05:17:26;;;;;;;9.57;6.93;;;5.00;99.90;;;;;;5107535;28;20310;-60
2023/02/19 05:19:54;;;;;;;12.63;7.20;;;5.10;99.90;;;;;;5113649;28;20467;-60
2023/02/19 05:22:22;;;;;;;11.87;7.43;;;4.90;99.90;;;;;;5113692;28;20934;-60
2023/02/19 05:24:50;;;;;;;10.63;8.03;;;5.10;99.90;;;;;;5105533;28;20505;-60
2023/02/19 05:27:18;;;;;;;10.13;7.63;;;5.10;99.90;;;;;;5113632;28;20228;-60
2023/02/19 05:29:47;;;;;;;11.30;7.50;;;5.20;99.90;;;;;;5111523;28;20471;-60
2023/02/19 05:32:15;;;;;;;10.70;8.50;;;5.20;99.90;;;;;;5100996;28;20869;-60
2023/02/19 05:34:43;;;;;;;10.57;7.77;;;5.20;99.90;;;;;;5093814;28;20682;-60
2023/02/19 05:37:11;;;;;;;11.97;7.87;;;5.20;99.90;;;;;;5116822;27;20966;-60
2023/02/19 05:39:39;;;;;;;10.00;7.23;;;5.00;99.90;;;;;;5118839;27;20225;-60
2023/02/19 05:42:07;;;;;;;9.83;6.63;;;5.00;99.90;;;;;;5113606;28;20489;-60
2023/02/19 05:44:35;;;;;;;11.53;8.07;;;5.10;99.90;;;;;;5110317;28;20249;-60
2023/02/19 05:47:05;;;;;;;8.20;6.67;;;5.30;99.90;;;;;;5102126;28;20983;-60
2023/02/19 05:49:33;;;;;;;9.77;6.97;;;5.30;99.90;;;;;;5095615;28;20704;-60
2023/02/19 05:52:01;;;;;;;10.13;7.93;;;5.40;99.90;;;;;;5134230;27;20230;-60
2023/02/19 05:54:29;;;;;;;8.83;6.97;;;5.30;99.90;;;;;;5133936;27;20695;-60
2023/02/19 05:56:57;;;;;;;10.63;6.80;;;5.10;99.90;;;;;;5134009;27;20217;-61
2023/02/19 05:59:27;;;;;;;10.00;6.57;;;5.10;99.90;;;;;;5133727;27;20221;-60
2023/02/19 06:01:57;;;;;;;10.07;6.47;;;5.10;99.90;;;;;;5110952;28;20238;-60
2023/02/19 06:04:26;;;;;;;9.57;6.63;;;5.10;99.90;;;;;;5093115;28;20263;-60
2023/02/19 06:06:54;;;;;;;14.03;7.47;;;5.00;99.90;;;;;;5105549;28;20226;-60
2023/02/19 06:09:22;;;;;;;10.77;7.47;;;5.00;99.90;;;;;;5100200;28;20233;-61
2023/02/19 06:11:53;;;;;;;9.67;6.57;;;5.00;99.90;;;;;;5113179;28;20964;-60
2023/02/19 06:14:21;;;;;;;9.40;6.23;;;4.90;99.90;;;;;;5113078;28;20463;-60
2023/02/19 06:16:49;;;;;;;12.40;6.57;;;4.90;99.90;;;;;;5118847;27;20235;-60
2023/02/19 06:19:17;;;;;;;6.73;5.63;;;4.80;99.90;;;;;;5117518;28;20225;-60
2023/02/19 06:21:54;;;;;;;7.67;6.03;;;4.60;99.90;;;;;;5117246;28;20238;-60
2023/02/19 06:24:22;;;;;;;9.73;6.57;;;4.90;99.90;;;;;;5117521;28;20228;-60
2023/02/19 06:26:50;;;;;;;9.77;6.70;;;5.00;99.90;;;;;;5117044;28;20228;-60
2023/02/19 06:29:18;;;;;;;10.40;6.50;;;5.00;99.90;;;;;;5116930;28;20223;-60
2023/02/19 06:31:46;;;;;;;12.00;5.77;;;4.80;99.90;;;;;;5114427;27;20708;-60
2023/02/19 06:34:14;;;;;;;10.10;5.80;;;4.80;99.90;;;;;;5096848;28;20712;-60
2023/02/19 06:36:43;;;;;;;9.33;6.13;;;4.90;99.90;;;;;;5111720;27;20469;-60
2023/02/19 06:39:12;;;;;;;9.80;6.07;;;5.00;99.90;;;;;;5116635;28;20472;-60
2023/02/19 06:41:40;;;;;;;10.80;6.00;;;5.00;99.90;;;;;;5096380;28;20495;-60
2023/02/19 06:44:09;;;;;;;8.23;6.27;;;5.00;99.90;;;;;;5104385;28;20482;-60
2023/02/19 06:46:37;;;;;;;7.87;5.63;;;5.00;99.90;;;;;;5109226;28;20502;-60
2023/02/19 06:49:05;;;;;;;10.60;5.20;;;4.80;99.90;;;;;;5111369;27;20280;-60
2023/02/19 06:51:34;;;;;;;8.40;5.70;;;4.90;99.90;;;;;;5111409;28;20463;-60
2023/02/19 06:54:02;;;;;;;10.17;6.03;;;4.90;99.90;;;;;;5116948;28;20230;-60
2023/02/19 06:56:33;;;;;;;7.47;4.60;;;4.90;99.90;;;;;;5115957;28;20225;-60
2023/02/19 06:59:03;;;;;;;6.80;5.20;;;5.00;99.90;;;;;;5116382;28;20315;-60
2023/02/19 07:01:33;;;;;;;8.90;5.60;;;5.10;99.90;;;;;;5128227;27;20561;-60
2023/02/19 07:04:02;;;;;;;6.30;4.80;;;5.00;99.90;;;;;;5136940;27;20225;-60
2023/02/19 07:06:30;;;;;;;5.40;4.67;;;5.10;99.90;;;;;;5127439;27;20474;-60
2023/02/19 07:08:59;;;;;;;8.93;4.90;;;5.10;99.90;;;;;;5107981;28;20221;-60
2023/02/19 07:11:30;;;;;;;8.57;4.90;;;5.10;99.90;;;;;;5115996;28;20222;-61
2023/02/19 07:14:01;;;;;;;8.57;5.20;;;5.20;99.90;;;;;;5116340;28;20545;-60
2023/02/19 07:16:30;;;;;;;6.80;4.43;;;5.00;99.90;;;;;;5109695;28;20230;-60
2023/02/19 07:18:59;;;;;;;6.67;4.23;;;5.00;99.90;;;;;;5113028;27;20270;-60
2023/02/19 07:21:28;;;;;;;8.60;3.57;;;5.00;99.90;;;;;;5123811;27;20618;-60
2023/02/19 07:23:57;;;;;;;5.90;3.83;;;5.00;99.90;;;;;;5137121;27;20238;-60
2023/02/19 07:26:25;;;;;;;6.17;3.03;;;4.80;99.90;;;;;;5135994;27;20457;-59
2023/02/19 07:28:53;;;;;;;5.20;3.03;;;4.90;99.90;;;;;;5126666;27;20225;-60
2023/02/19 07:31:24;;;;;;;7.07;3.77;;;5.00;99.90;;;;;;5115814;27;20234;-60
2023/02/19 07:33:52;;;;;;;7.50;3.20;;;4.90;99.90;;;;;;5117176;27;20475;-60
2023/02/19 07:36:21;;;;;;;7.07;2.87;;;4.70;99.90;;;;;;5115570;27;20232;-60
2023/02/19 07:38:54;;;;;;;5.43;2.93;;;4.70;99.90;;;;;;5112783;28;20228;-60
2023/02/19 07:41:23;;;;;;;6.27;2.40;;;4.50;99.90;;;;;;5115875;28;20229;-60
2023/02/19 07:43:52;;;;;;;7.17;3.20;;;4.50;99.90;;;;;;5115694;28;20241;-60
2023/02/19 07:46:21;;;;;;;7.03;2.70;;;4.60;99.90;;;;;;5115239;28;20251;-60
2023/02/19 07:48:50;;;;;;;6.93;2.27;;;4.40;99.90;;;;;;5115271;28;20226;-60
2023/02/19 07:51:20;;;;;;;3.60;2.07;;;4.50;99.90;;;;;;5115037;28;20467;-60
2023/02/19 07:53:50;;;;;;;5.10;2.53;;;4.50;99.90;;;;;;5115167;28;20639;-60
2023/02/19 07:56:19;;;;;;;6.13;2.00;;;4.60;99.90;;;;;;5115426;27;21014;-60
2023/02/19 07:58:47;;;;;;;3.00;1.73;;;4.40;99.90;;;;;;5113477;27;20961;-60
2023/02/19 08:01:16;;;;;;;5.53;2.03;;;4.50;99.90;;;;;;5114537;28;20475;-60
2023/02/19 08:03:44;;;;;;;4.63;1.80;;;4.50;99.90;;;;;;5116243;27;20473;-60
2023/02/19 08:06:13;;;;;;;6.57;1.70;;;4.50;99.90;;;;;;5116371;27;20470;-60
2023/02/19 08:08:41;;;;;;;3.53;1.80;;;4.60;99.90;;;;;;5102866;28;20828;-59
2023/02/19 08:13:55;;;;;;;2.67;1.20;;;4.90;99.90;;;;;;5114952;27;20984;-59
2023/02/19 08:16:23;;;;;;;5.97;1.63;;;5.00;99.90;;;;;;5114941;28;20470;-60
2023/02/19 08:19:09;;;;;;;4.70;2.00;;;5.20;99.90;;;;;;5115184;28;20688;-60
2023/02/19 08:21:38;;;;;;;4.13;1.70;;;5.30;99.90;;;;;;5114956;28;20764;-60
2023/02/19 08:24:06;;;;;;;4.67;1.90;;;5.60;99.90;;;;;;5115055;28;20463;-59
2023/02/19 08:26:35;;;;;;;6.13;1.63;;;5.70;99.90;;;;;;5114903;28;20478;-59
2023/02/19 08:29:03;;;;;;;3.97;1.67;;;5.90;99.90;;;;;;5114633;28;20230;-60
2023/02/19 08:31:32;;;;;;;7.77;1.83;;;6.00;99.90;;;;;;5113281;28;20256;-60
2023/02/19 08:34:00;;;;;;;4.67;1.77;;;6.10;99.90;;;;;;5117463;27;20544;-59
2023/02/19 08:36:28;;;;;;;7.10;1.63;;;6.10;99.90;;;;;;5102359;28;21260;-60
2023/02/19 08:38:58;;;;;;;6.73;1.67;;;6.30;99.90;;;;;;5106886;27;20230;-60
2023/02/19 08:41:26;;;;;;;7.10;1.80;;;6.30;99.90;;;;;;5106758;28;20221;-61
2023/02/19 08:43:54;;;;;;;4.87;1.70;;;6.50;99.90;;;;;;5107707;28;20229;-60
2023/02/19 08:46:22;;;;;;;4.37;1.63;;;6.50;99.90;;;;;;5108609;28;20225;-60
2023/02/19 08:48:51;;;;;;;8.23;1.93;;;6.70;99.90;;;;;;5109077;28;20737;-60
2023/02/19 08:51:19;;;;;;;3.37;1.60;;;6.70;99.90;;;;;;5108981;28;20234;-60
2023/02/19 08:53:47;;;;;;;6.77;1.47;;;6.60;99.90;;;;;;5108961;28;20681;-60
2023/02/19 08:56:17;;;;;;;2.77;1.50;;;6.80;99.90;;;;;;5108539;27;20271;-60
2023/02/19 08:58:46;;;;;;;8.60;1.60;;;6.90;99.90;;;;;;5108307;28;21153;-60
2023/02/19 09:01:16;;;;;;;5.67;1.70;;;7.00;99.90;;;;;;5107258;27;20604;-60
2023/02/19 09:03:45;;;;;;;7.10;1.83;;;6.80;99.90;;;;;;5108912;28;20806;-60
2023/02/19 09:06:15;;;;;;;4.57;1.60;;;6.90;99.90;;;;;;5108961;28;20226;-60
2023/02/19 09:08:43;;;;;;;3.77;1.80;;;7.00;99.90;;;;;;5107843;28;21389;-60
2023/02/19 09:11:12;;;;;;;5.90;1.77;;;7.10;99.90;;;;;;5108585;28;20697;-60
2023/02/19 09:13:42;;;;;;;6.27;1.60;;;7.30;99.90;;;;;;5108780;28;20310;-60
2023/02/19 09:16:13;;;;;;;9.57;2.00;;;7.50;99.90;;;;;;5107931;28;20317;-60
2023/02/19 09:18:42;;;;;;;10.60;1.70;;;7.40;99.90;;;;;;5107965;28;20221;-61
2023/02/19 09:21:10;;;;;;;6.83;1.83;;;7.50;99.90;;;;;;5110473;28;20218;-60
2023/02/19 09:23:38;;;;;;;7.07;2.63;;;7.40;99.90;;;;;;5113604;28;20272;-60
2023/02/19 09:26:08;;;;;;;5.10;1.40;;;7.50;99.90;;;;;;5113745;28;20229;-60
2023/02/19 09:28:40;;;;;;;7.67;1.87;;;7.60;99.90;;;;;;5111153;28;20260;-61
2023/02/19 09:31:12;;;;;;;4.77;1.47;;;7.70;99.90;;;;;;5107203;28;20226;-61
2023/02/19 09:33:43;;;;;;;6.30;1.53;;;7.90;99.90;;;;;;5111047;28;20229;-60
2023/02/19 09:36:11;;;;;;;5.50;1.70;;;8.20;99.90;;;;;;5113380;28;20226;-60
2023/02/19 09:38:39;;;;;;;6.63;1.50;;;8.20;99.90;;;;;;5111398;28;20279;-60
2023/02/19 09:41:13;;;;;;;5.87;1.93;;;8.40;99.90;;;;;;5113056;28;20229;-61
2023/02/19 09:43:43;;;;;;;5.33;1.50;;;8.40;99.90;;;;;;5120007;27;20247;-60
2023/02/19 09:46:24;;;;;;;6.17;1.10;;;8.00;99.90;;;;;;5090515;28;20218;-60
2023/02/19 09:48:53;;;;;;;4.93;1.10;;;8.00;99.90;;;;;;5101283;28;20222;-61
2023/02/19 09:51:22;;;;;;;5.77;1.00;;;8.00;99.90;;;;;;5111119;28;20218;-61
2023/02/19 09:53:52;;;;;;;8.20;1.60;;;8.10;99.90;;;;;;5100387;28;20218;-60
2023/02/19 09:56:20;;;;;;;8.07;1.57;;;8.30;99.90;;;;;;5113189;28;20222;-60
2023/02/19 09:58:50;;;;;;;2.77;0.80;;;8.40;99.90;;;;;;5115273;27;20232;-60
2023/02/19 10:01:21;;;;;;;4.87;1.07;;;8.50;99.90;;;;;;5114061;28;20234;-61
2023/02/19 10:03:49;;;;;;;5.07;1.10;;;8.70;99.90;;;;;;5112674;28;20264;-60
2023/02/19 10:06:22;;;;;;;3.63;1.00;;;8.50;99.90;;;;;;5114374;28;20229;-60
2023/02/19 10:08:52;;;;;;;6.80;1.63;;;8.40;99.90;;;;;;5112977;28;20321;-61
2023/02/19 10:11:22;;;;;;;7.23;1.27;;;8.60;99.90;;;;;;5112527;28;20711;-60
2023/02/19 10:13:54;;;;;;;3.97;0.87;;;8.80;99.90;;;;;;5122168;28;20229;-60
2023/02/19 10:16:26;;;;;;;7.73;1.20;;;9.10;99.90;;;;;;5110274;28;20226;-61
2023/02/19 10:18:55;;;;;;;3.70;1.00;;;9.10;99.90;;;;;;5112891;28;20217;-60
2023/02/19 10:21:26;;;;;;;7.83;1.10;;;9.00;99.90;;;;;;5112937;28;20232;-60
2023/02/19 10:23:59;;;;;;;4.00;0.90;;;9.10;99.90;;;;;;5116978;28;20312;-61
2023/02/19 10:26:27;;;;;;;6.40;1.17;;;9.20;99.90;;;;;;5115226;28;20585;-60
2023/02/19 10:28:55;;;;;;;5.17;1.13;;;9.40;99.90;;;;;;5112777;28;20294;-61
2023/02/19 10:31:25;;;;;;;4.43;1.03;;;9.30;99.90;;;;;;5109279;28;20239;-61
2023/02/19 10:33:56;;;;;;;4.97;1.00;;;9.60;99.90;;;;;;5092845;28;20686;-61
2023/02/19 10:36:29;;;;;;;3.37;1.00;;;9.70;99.90;;;;;;5109013;28;20616;-61
2023/02/19 10:39:00;;;;;;;5.00;1.23;;;9.30;99.90;;;;;;5124700;28;20228;-61
2023/02/19 10:41:29;;;;;;;4.50;0.80;;;8.80;99.90;;;;;;5133066;28;20248;-61
2023/02/19 10:44:18;;;;;;;5.93;1.07;;;8.80;99.90;;;;;;5125761;28;20250;-61
2023/02/19 10:46:54;;;;;;;5.80;0.93;;;9.20;99.90;;;;;;5112659;28;20233;-61
2023/02/19 10:49:26;;;;;;;2.70;0.80;;;9.20;99.90;;;;;;5112756;28;20224;-61
2023/02/19 10:51:56;;;;;;;5.53;1.23;;;8.80;99.90;;;;;;5112675;28;20256;-61
2023/02/19 10:54:30;;;;;;;3.93;0.73;;;8.40;99.90;;;;;;5112622;28;20215;-61
2023/02/19 10:57:24;;;;;;;5.33;1.23;;;8.60;99.90;;;;;;5112661;28;20700;-61
2023/02/19 10:59:56;;;;;;;4.27;1.30;;;8.40;99.90;;;;;;5112871;28;20218;-61
2023/02/19 11:02:26;;;;;;;5.40;1.03;;;8.20;99.90;;;;;;5114527;28;20622;-61
2023/02/19 11:05:05;;;;;;;9.40;1.47;;;8.30;99.90;;;;;;5116553;28;20230;-61
2023/02/19 11:07:34;;;;;;;5.97;1.17;;;8.70;99.90;;;;;;5126975;27;20230;-61
2023/02/19 11:10:04;;;;;;;4.97;0.83;;;9.00;99.90;;;;;;5135674;27;20224;-61
2023/02/19 11:12:34;;;;;;;6.87;0.73;;;9.20;99.90;;;;;;5136911;27;20701;-60
2023/02/19 11:15:20;;;;;;;4.70;1.00;;;9.40;99.90;;;;;;5121096;27;20703;-61
2023/02/19 11:17:58;;;;;;;5.37;1.27;;;9.50;99.90;;;;;;5116137;28;20241;-61
2023/02/19 11:20:28;;;;;;;5.40;0.93;;;9.50;99.90;;;;;;5115872;28;20222;-61
2023/02/19 11:23:00;;;;;;;4.73;0.90;;;9.50;99.90;;;;;;5116177;28;20235;-61
2023/02/19 11:25:29;;;;;;;4.87;0.90;;;9.60;99.90;;;;;;5115901;28;20222;-61
2023/02/19 11:28:01;;;;;;;4.33;0.83;;;9.70;99.90;;;;;;5115721;28;20230;-61
2023/02/19 11:30:39;;;;;;;4.43;0.93;;;9.30;99.90;;;;;;5115517;28;20228;-61
2023/02/19 11:33:29;;;;;;;4.97;0.70;;;8.90;99.90;;;;;;5115797;28;20231;-61
2023/02/19 11:36:28;;;;;;;3.03;0.90;;;8.70;99.90;;;;;;5120410;27;20714;-61
2023/02/19 11:39:00;;;;;;;7.17;1.10;;;8.50;99.90;;;;;;5127555;27;20240;-61
2023/02/19 11:42:01;;;;;;;2.80;0.77;;;8.60;99.90;;;;;;5136073;27;20293;-61
2023/02/19 11:44:43;;;;;;;3.90;0.80;;;8.70;99.90;;;;;;5108037;27;20241;-60
2023/02/19 11:47:37;;;;;;;4.63;1.30;;;9.00;99.90;;;;;;5107712;28;20222;-61
2023/02/19 11:50:18;;;;;;;3.73;0.80;;;9.10;99.90;;;;;;5115530;28;20222;-61
2023/02/19 11:52:56;;;;;;;3.13;0.97;;;9.10;99.90;;;;;;5115493;28;20249;-61
2023/02/19 11:55:34;;;;;;;4.43;0.90;;;9.20;99.90;;;;;;5115380;28;20213;-61
2023/02/19 11:58:17;;;;;;;4.07;1.10;;;9.30;99.90;;;;;;5115069;28;20218;-61
2023/02/19 12:00:55;;;;;;;5.17;1.10;;;9.40;99.90;;;;;;5114927;28;20234;-61
2023/02/19 12:03:36;;;;;;;4.00;0.83;;;9.50;99.90;;;;;;5115410;28;20230;-61
2023/02/19 12:06:23;;;;;;;5.87;0.80;;;9.70;99.90;;;;;;5120609;27;20700;-61
2023/02/19 12:09:26;;;;;;;4.20;0.83;;;9.80;99.90;;;;;;5126939;27;20226;-61
2023/02/19 12:12:11;;;;;;;5.30;0.90;;;10.00;99.90;;;;;;5135914;27;20217;-61
2023/02/19 12:15:22;;;;;;;5.07;1.10;;;10.20;99.90;;;;;;5122169;27;20619;-61
2023/02/19 12:18:13;;;;;;;4.97;0.73;;;10.00;99.90;;;;;;5072054;28;20273;-61
2023/02/19 12:20:50;;;;;;;4.90;1.00;;;9.60;99.90;;;;;;5069941;28;20246;-61
2023/02/19 12:23:47;;;;;;;4.00;0.90;;;9.30;99.90;;;;;;5087322;28;20238;-61
2023/02/19 12:26:23;;;;;;;3.37;0.70;;;9.40;99.90;;;;;;5107767;28;20686;-61
2023/02/19 12:29:15;;;;;;;4.33;1.27;;;9.40;99.90;;;;;;5114621;28;20225;-61
2023/02/19 12:32:02;;;;;;;2.70;0.97;;;9.50;99.90;;;;;;5114268;28;20242;-61
2023/02/19 12:34:49;;;;;;;5.27;1.00;;;9.40;99.90;;;;;;5114707;28;20222;-61
2023/02/19 12:37:29;;;;;;;2.70;0.73;;;9.30;99.90;;;;;;5125707;27;20227;-61
2023/02/19 12:40:13;;;;;;;3.60;0.67;;;9.20;99.90;;;;;;5133629;27;20232;-61
2023/02/19 12:42:54;;;;;;;6.67;1.00;;;9.30;99.90;;;;;;5119375;27;20229;-60
2023/02/19 12:45:27;;;;;;;5.17;1.10;;;9.30;99.90;;;;;;5090933;28;20736;-60
2023/02/19 12:48:01;;;;;;;5.73;0.90;;;9.20;99.90;;;;;;5094166;28;20741;-60
2023/02/19 12:50:31;;;;;;;5.47;0.83;;;9.10;99.90;;;;;;5093996;28;20694;-60
2023/02/19 12:53:05;;;;;;;2.33;0.60;;;8.90;99.90;;;;;;5094173;28;20226;-60
2023/02/19 12:55:39;;;;;;;1.77;0.60;;;8.80;99.90;;;;;;5093946;28;20234;-60
2023/02/19 12:58:13;;;;;;;3.17;1.10;;;8.70;99.90;;;;;;5094107;28;20225;-60
2023/02/19 13:00:44;;;;;;;3.03;0.80;;;8.70;99.90;;;;;;5093051;28;20242;-59
2023/02/19 13:03:20;;;;;;;4.97;0.73;;;8.60;99.90;;;;;;5093892;28;20227;-60
2023/02/19 13:05:53;;;;;;;7.20;0.80;;;8.60;99.90;;;;;;5094870;28;20585;-59
2023/02/19 13:08:27;;;;;;;4.97;0.83;;;8.60;99.90;;;;;;5089681;28;20685;-60
2023/02/19 13:11:00;;;;;;;2.97;0.80;;;8.60;99.90;;;;;;5093793;28;20241;-60
2023/02/19 13:13:33;;;;;;;5.20;0.70;;;8.50;99.90;;;;;;5091241;28;20234;-60
2023/02/19 13:16:06;;;;;;;3.60;1.00;;;8.40;99.90;;;;;;5092593;28;20218;-60
2023/02/19 13:18:48;;;;;;;1.97;0.60;;;8.30;99.90;;;;;;5092949;28;20229;-60
2023/02/19 13:24:07;;;;;;;5.03;0.80;;;8.30;99.90;;;;;;5092388;28;20702;-60
2023/02/19 13:26:49;;;;;;;4.40;0.90;;;8.30;99.90;;;;;;5089878;28;20226;-60
2023/02/19 13:29:33;;;;;;;3.73;0.63;;;8.30;99.90;;;;;;5091250;28;20237;-59
2023/02/19 13:32:21;;;;;;;3.73;0.80;;;8.30;99.90;;;;;;5091240;28;20724;-60
2023/02/19 13:35:00;;;;;;;2.23;0.80;;;8.40;99.90;;;;;;5093020;28;20309;-60
2023/02/19 13:37:32;;;;;;;5.93;1.10;;;8.50;99.90;;;;;;5095331;28;20582;-60
2023/02/19 13:40:04;;;;;;;4.43;0.80;;;8.60;99.90;;;;;;5093264;28;20234;-60
2023/02/19 13:42:36;;;;;;;5.03;0.90;;;8.70;99.90;;;;;;5091649;28;20226;-60
2023/02/19 13:45:06;;;;;;;4.00;0.73;;;8.70;99.90;;;;;;5102325;28;20579;-59
2023/02/19 13:47:59;;;;;;;3.40;0.60;;;8.60;99.90;;;;;;5097855;28;20792;-60